Terminal Aerodrome Forecast
Issued by NWS

Home | Current Version | Previous Version | Text Only | Print | Product List | Glossary On
Versions: 1 2 3 4 5 6 7 8 9 10 11 12 13 14
000
FTUS45 KABQ 211600 AAA
TAFSAF
TAF AMD
KSAF 211644Z 2117/2212 33015G25KT P6SM SCT040 SCT120
     FM220100 32010KT P6SM SCT030 BKN200
     FM220700 28008KT P6SM BKN025=

USA.gov is the U.S. government's official web portal to all federal, state and local government web resources and services.